Time;durP1;ratioP1;P1;durP2;ratioP2;P2;SDS_P1;SDS_P2;PMS_P1;PMS_P2;Temp;Humidity;BMP_temperature;BMP_pressure;BME280_temperature;BME280_humidity;BME280_pressure;Samples;Min_cycle;Max_cycle;Signal;HPM_P1;HPM_P2
2022/09/12 00:00:42;;;;;;;17.38;11.35;;;;;;;;;;4958820;28;20411;-85
2022/09/12 00:03:08;;;;;;;13.45;10.20;;;12.60;99.90;;;;;;4975277;28;20195;-85
2022/09/12 00:05:39;;;;;;;13.37;11.03;;;12.60;99.90;;;;;;4968585;28;20222;-87
2022/09/12 00:08:05;;;;;;;15.88;9.85;;;12.50;99.90;;;;;;4980037;28;20532;-88
2022/09/12 00:10:31;;;;;;;12.87;9.83;;;;;;;;;;4978799;28;20215;-87
2022/09/12 00:12:56;;;;;;;13.93;8.80;;;12.50;99.90;;;;;;4973299;28;20207;-86
2022/09/12 00:15:22;;;;;;;14.90;9.07;;;;;;;;;;4981412;28;20558;-86
2022/09/12 00:17:48;;;;;;;13.23;9.03;;;12.50;99.90;;;;;;4977525;28;21815;-85
2022/09/12 00:20:13;;;;;;;11.07;8.73;;;12.40;99.90;;;;;;4978534;28;20439;-85
2022/09/12 00:22:39;;;;;;;14.50;9.90;;;12.30;99.90;;;;;;4975259;28;20233;-88
2022/09/12 00:25:07;;;;;;;13.93;10.43;;;12.30;99.90;;;;;;4962112;28;20202;-87
2022/09/12 00:27:33;;;;;;;13.70;10.25;;;;;;;;;;4980814;28;20261;-85
2022/09/12 00:29:59;;;;;;;16.10;11.10;;;;;;;;;;4974027;28;20278;-88
2022/09/12 00:32:25;;;;;;;15.10;11.87;;;12.20;99.90;;;;;;4978175;28;20469;-87
2022/09/12 00:34:50;;;;;;;16.47;11.47;;;12.20;99.90;;;;;;4977931;28;20485;-85
2022/09/12 00:37:16;;;;;;;16.03;11.80;;;14.00;99.90;;;;;;4992340;28;20209;-85
2022/09/12 00:39:41;;;;;;;21.77;11.87;;;12.20;99.90;;;;;;4988981;28;20191;-86
2022/09/12 00:42:10;;;;;;;21.17;14.23;;;12.20;99.90;;;;;;4995461;28;20187;-84
2022/09/12 00:44:43;;;;;;;20.05;12.98;;;12.20;99.90;;;;;;4981221;28;20204;-85
2022/09/12 00:47:16;;;;;;;15.48;11.90;;;12.20;99.90;;;;;;4986403;28;20197;-86
2022/09/12 00:49:58;;;;;;;12.70;10.60;;;12.20;99.90;;;;;;4981472;28;20179;-87
2022/09/12 00:52:30;;;;;;;20.33;11.18;;;12.10;99.90;;;;;;4978060;28;20603;-86
2022/09/12 00:55:21;;;;;;;14.85;11.50;;;12.10;99.90;;;;;;4980351;28;20278;-85
2022/09/12 00:57:58;;;;;;;14.52;10.13;;;12.00;99.90;;;;;;4964907;28;20273;-85
2022/09/12 01:00:26;;;;;;;19.23;10.35;;;11.90;99.90;;;;;;4968062;28;20242;-84
2022/09/12 01:03:00;;;;;;;12.00;7.57;;;11.90;99.90;;;;;;4977329;28;20195;-84
2022/09/12 01:05:28;;;;;;;15.07;10.85;;;11.90;99.90;;;;;;4973921;28;20214;-87
2022/09/12 01:07:55;;;;;;;13.20;10.05;;;11.90;99.90;;;;;;4967721;28;20195;-85
2022/09/12 01:10:22;;;;;;;14.55;10.32;;;11.80;99.90;;;;;;4961227;28;20191;-85
2022/09/12 01:12:49;;;;;;;15.73;11.13;;;11.90;99.90;;;;;;4979644;28;20210;-86
2022/09/12 01:15:14;;;;;;;15.95;11.20;;;11.80;99.90;;;;;;4975557;28;20240;-86
2022/09/12 01:18:06;;;;;;;16.00;9.87;;;11.80;99.90;;;;;;4959082;28;20450;-86
2022/09/12 01:20:59;;;;;;;15.45;11.30;;;11.80;99.90;;;;;;4941298;28;20196;-85
2022/09/12 01:26:47;;;;;;;20.63;14.52;;;11.90;99.90;;;;;;4977210;28;20178;-86
2022/09/12 01:29:34;;;;;;;21.00;14.40;;;11.70;99.90;;;;;;4977903;28;20192;-85
2022/09/12 01:32:08;;;;;;;20.33;13.68;;;11.70;99.90;;;;;;4976456;28;20184;-88
2022/09/12 01:34:42;;;;;;;20.65;13.85;;;11.70;99.90;;;;;;4965326;28;20775;-87
2022/09/12 01:37:37;;;;;;;18.40;13.07;;;11.70;99.90;;;;;;4973760;28;20567;-86
2022/09/12 01:40:03;;;;;;;66.22;16.92;;;11.60;99.90;;;;;;4964757;28;20187;-87
2022/09/12 01:42:40;;;;;;;21.65;14.95;;;11.60;99.90;;;;;;4977406;28;21020;-86
2022/09/12 01:45:19;;;;;;;17.65;11.52;;;11.60;99.90;;;;;;4977704;28;20604;-85
2022/09/12 01:47:49;;;;;;;21.95;12.80;;;11.40;99.90;;;;;;4980476;28;20186;-86
2022/09/12 01:50:28;;;;;;;15.10;11.88;;;11.40;99.90;;;;;;4974580;28;20204;-86
2022/09/12 01:53:00;;;;;;;24.50;11.30;;;11.30;99.90;;;;;;4963013;28;20204;-86
2022/09/12 01:55:35;;;;;;;17.63;11.65;;;11.30;99.90;;;;;;4983714;28;20688;-85
2022/09/12 01:58:12;;;;;;;21.30;12.45;;;11.30;99.90;;;;;;4982371;28;20617;-85
2022/09/12 02:00:54;;;;;;;16.95;11.02;;;11.30;99.90;;;;;;4977073;28;20252;-85
2022/09/12 02:03:26;;;;;;;18.90;12.30;;;11.30;99.90;;;;;;4969754;28;20196;-85
2022/09/12 02:05:55;;;;;;;16.77;11.70;;;11.30;99.90;;;;;;4975853;28;20211;-85
2022/09/12 02:08:45;;;;;;;15.20;10.10;;;11.30;99.90;;;;;;4962649;28;20196;-85
2022/09/12 02:11:11;;;;;;;19.55;11.98;;;11.30;99.90;;;;;;4982352;28;20194;-85
2022/09/12 02:13:46;;;;;;;17.43;11.70;;;11.30;99.90;;;;;;4991182;28;20207;-85
2022/09/12 02:16:23;;;;;;;17.58;11.80;;;11.20;99.90;;;;;;4977742;28;20446;-86
2022/09/12 02:18:54;;;;;;;20.08;12.63;;;11.10;99.90;;;;;;4982067;28;20183;-86
2022/09/12 02:21:21;;;;;;;14.73;10.82;;;11.10;99.90;;;;;;4977160;28;20186;-88
2022/09/12 02:23:56;;;;;;;19.45;12.38;;;11.00;99.90;;;;;;4974539;28;20278;-84
2022/09/12 02:26:42;;;;;;;17.10;13.75;;;10.90;99.90;;;;;;4980219;28;20187;-86
2022/09/12 02:29:08;;;;;;;19.25;14.05;;;11.00;99.90;;;;;;4976252;28;20667;-85
2022/09/12 02:32:25;;;;;;;19.90;13.10;;;11.00;99.90;;;;;;4963671;28;20255;-86
2022/09/12 02:35:06;;;;;;;19.90;13.15;;;11.00;99.90;;;;;;4957479;28;20218;-85
2022/09/12 02:37:55;;;;;;;19.23;13.55;;;11.00;99.90;;;;;;4963013;28;20241;-86
2022/09/12 02:40:21;;;;;;;18.38;12.27;;;11.00;99.90;;;;;;4964339;28;20199;-86
2022/09/12 02:42:49;;;;;;;17.23;11.38;;;10.90;99.90;;;;;;4966876;28;20194;-86
2022/09/12 02:45:15;;;;;;;17.58;12.68;;;10.90;99.90;;;;;;4961181;28;20298;-86
2022/09/12 02:47:47;;;;;;;18.42;11.80;;;10.90;99.90;;;;;;4972859;28;22573;-86
2022/09/12 02:50:13;;;;;;;20.13;12.80;;;;;;;;;;4976185;28;20191;-87
2022/09/12 02:52:40;;;;;;;17.43;12.37;;;10.90;99.90;;;;;;4974840;28;20266;-86
2022/09/12 02:55:06;;;;;;;17.70;11.38;;;10.90;99.90;;;;;;4974847;28;20469;-86
2022/09/12 02:57:32;;;;;;;19.70;13.30;;;10.80;99.90;;;;;;4979922;28;20212;-86
2022/09/12 03:00:00;;;;;;;19.20;12.50;;;10.70;99.90;;;;;;4978688;28;20206;-87
2022/09/12 03:03:06;;;;;;;20.73;12.93;;;10.70;99.90;;;;;;4974051;28;20197;-86
2022/09/12 03:05:39;;;;;;;18.55;12.80;;;10.70;99.90;;;;;;4941223;28;20294;-87
2022/09/12 03:08:18;;;;;;;19.85;12.20;;;10.70;99.90;;;;;;4970706;28;20222;-86
2022/09/12 03:11:19;;;;;;;17.00;12.18;;;10.70;99.90;;;;;;4971771;28;20199;-86
2022/09/12 03:14:20;;;;;;;20.58;11.60;;;10.70;99.90;;;;;;4975962;28;20226;-86
2022/09/12 03:17:07;;;;;;;27.95;14.70;;;10.70;99.90;;;;;;4976499;28;20238;-88
2022/09/12 03:19:56;;;;;;;26.55;16.38;;;10.60;99.90;;;;;;4975463;28;20269;-86
2022/09/12 03:22:40;;;;;;;28.60;15.57;;;10.60;99.90;;;;;;4988498;28;20183;-86
2022/09/12 03:25:15;;;;;;;20.17;12.98;;;10.60;99.90;;;;;;4985823;28;20200;-85
2022/09/12 03:27:56;;;;;;;20.23;13.20;;;10.60;99.90;;;;;;4967984;28;20258;-85
2022/09/12 03:30:22;;;;;;;18.83;13.23;;;10.50;99.90;;;;;;4977382;28;20238;-85
2022/09/12 03:32:51;;;;;;;19.90;12.03;;;10.40;99.90;;;;;;4978270;28;20219;-85
2022/09/12 03:35:19;;;;;;;19.55;12.82;;;10.50;99.90;;;;;;4978539;28;20294;-85
2022/09/12 03:37:46;;;;;;;20.80;14.00;;;10.50;99.90;;;;;;4964246;28;20207;-86
2022/09/12 03:40:12;;;;;;;20.80;13.07;;;;;;;;;;4979255;28;20186;-85
2022/09/12 03:42:38;;;;;;;22.57;14.50;;;;;;;;;;4981097;28;20183;-85
2022/09/12 03:45:08;;;;;;;17.67;12.20;;;10.30;99.90;;;;;;4993996;28;20550;-85
2022/09/12 03:47:34;;;;;;;16.35;10.85;;;10.40;99.90;;;;;;4981873;28;20190;-85
2022/09/12 03:50:01;;;;;;;17.63;11.40;;;10.40;99.90;;;;;;4980585;28;20180;-86
2022/09/12 03:52:27;;;;;;;20.17;12.05;;;;;;;;;;4974504;28;21666;-86
2022/09/12 03:54:52;;;;;;;21.50;12.87;;;;;;;;;;4979130;28;20207;-86
2022/09/12 03:57:18;;;;;;;19.70;12.67;;;;;;;;;;4974351;28;20517;-85
2022/09/12 03:59:44;;;;;;;21.83;13.23;;;;;;;;;;4976546;28;20509;-85
2022/09/12 04:02:12;;;;;;;19.53;12.80;;;;;;;;;;4974858;28;20533;-86
2022/09/12 04:04:40;;;;;;;22.33;13.80;;;10.20;99.90;;;;;;4972229;28;20463;-87
2022/09/12 04:07:06;;;;;;;25.83;15.25;;;;;;;;;;4976055;28;20195;-86
2022/09/12 04:09:32;;;;;;;23.63;13.37;;;10.30;99.90;;;;;;4971687;28;20199;-86
2022/09/12 04:11:57;;;;;;;22.47;11.50;;;10.30;99.90;;;;;;4965406;28;20482;-86
2022/09/12 04:14:23;;;;;;;24.40;14.37;;;10.30;99.90;;;;;;4981567;28;20227;-87
2022/09/12 04:16:48;;;;;;;20.70;13.63;;;10.30;99.90;;;;;;4966492;28;20200;-86
2022/09/12 04:19:14;;;;;;;17.90;10.87;;;;;;;;;;4965005;28;20262;-86
2022/09/12 04:21:40;;;;;;;17.80;11.30;;;;;;;;;;4976202;28;20688;-86
2022/09/12 04:24:06;;;;;;;17.30;11.17;;;7.00;99.90;;;;;;4971132;28;20512;-86
2022/09/12 04:26:32;;;;;;;19.17;11.30;;;;;;;;;;4975161;28;20462;-86
2022/09/12 04:28:57;;;;;;;16.00;11.87;;;10.40;99.90;;;;;;4979558;28;20214;-87
2022/09/12 04:31:24;;;;;;;18.87;12.97;;;10.40;99.90;;;;;;4977025;28;22071;-87
2022/09/12 04:33:57;;;;;;;20.25;12.57;;;10.30;99.90;;;;;;4973946;28;20293;-87
2022/09/12 04:36:24;;;;;;;19.15;12.20;;;10.30;99.90;;;;;;4976031;28;20245;-87
2022/09/12 04:38:51;;;;;;;21.98;11.95;;;10.20;99.90;;;;;;4961992;28;20724;-87
2022/09/12 04:41:22;;;;;;;17.65;12.25;;;10.30;99.90;;;;;;4972844;28;20303;-87
2022/09/12 04:43:52;;;;;;;24.95;13.18;;;10.30;99.90;;;;;;4965678;28;20211;-86
2022/09/12 04:46:19;;;;;;;19.58;13.85;;;10.20;99.90;;;;;;4959423;28;20196;-87
2022/09/12 04:48:45;;;;;;;23.65;14.05;;;10.30;99.90;;;;;;4964094;28;20188;-86
2022/09/12 04:51:14;;;;;;;21.17;12.75;;;10.30;99.90;;;;;;4966983;28;20191;-86
2022/09/12 04:53:41;;;;;;;18.05;12.43;;;;;;;;;;4975667;28;20211;-87
2022/09/12 04:56:09;;;;;;;14.57;10.40;;;10.30;99.90;;;;;;4977393;28;20183;-86
2022/09/12 04:58:35;;;;;;;18.85;11.93;;;10.20;99.90;;;;;;4977033;28;20188;-86
2022/09/12 05:01:10;;;;;;;19.77;12.50;;;10.20;99.90;;;;;;4970567;28;20569;-87
2022/09/12 05:03:39;;;;;;;18.60;11.88;;;10.20;99.90;;;;;;4945544;28;20488;-86
2022/09/12 05:06:07;;;;;;;23.92;12.70;;;10.20;99.90;;;;;;4950694;28;20187;-86
2022/09/12 05:08:37;;;;;;;17.55;13.57;;;10.20;99.90;;;;;;4967411;28;20187;-87
2022/09/12 05:11:09;;;;;;;26.15;15.38;;;10.30;99.90;;;;;;4958203;28;21144;-87
2022/09/12 05:13:35;;;;;;;20.02;13.82;;;10.50;99.90;;;;;;4974101;28;20285;-86
2022/09/12 05:16:03;;;;;;;19.95;13.35;;;10.50;99.90;;;;;;4989018;28;20179;-87
2022/09/12 05:18:34;;;;;;;386.35;40.47;;;10.50;99.90;;;;;;4964061;28;20670;-87
2022/09/12 05:23:29;;;;;;;402.55;32.65;;;10.40;99.90;;;;;;4986420;28;20224;-84
2022/09/12 05:25:56;;;;;;;475.30;46.33;;;10.50;99.90;;;;;;4983256;28;20183;-84
2022/09/12 05:28:23;;;;;;;367.23;37.75;;;10.50;99.90;;;;;;4970788;28;20191;-82
2022/09/12 05:31:05;;;;;;;231.38;27.25;;;10.70;99.90;;;;;;4978652;28;22268;-84
2022/09/12 05:33:31;;;;;;;176.85;26.13;;;;;;;;;;4952738;28;21079;-86
2022/09/12 05:35:57;;;;;;;150.50;22.98;;;10.90;99.90;;;;;;4966402;28;20703;-85
2022/09/12 05:38:27;;;;;;;151.88;22.95;;;10.20;99.90;;;;;;4950070;28;20611;-84
2022/09/12 05:40:53;;;;;;;228.25;25.33;;;11.10;99.90;;;;;;4955052;28;20385;-86
2022/09/12 05:43:19;;;;;;;285.50;29.53;;;11.20;99.90;;;;;;4957030;28;20210;-87
2022/09/12 05:45:45;;;;;;;243.98;28.27;;;11.40;99.90;;;;;;4955233;28;20433;-84
2022/09/12 05:48:10;;;;;;;101.60;18.40;;;11.60;99.90;;;;;;4970450;28;20388;-87
2022/09/12 05:50:36;;;;;;;80.00;15.90;;;;;;;;;;4945017;28;20210;-82
2022/09/12 05:53:02;;;;;;;55.20;16.60;;;12.90;99.90;;;;;;4963506;28;20299;-84
2022/09/12 05:55:28;;;;;;;37.70;13.00;;;;;;;;;;4958652;28;20447;-81
2022/09/12 05:57:54;;;;;;;25.40;11.30;;;15.70;99.90;;;;;;4967535;28;20179;-85
2022/09/12 06:00:20;;;;;;;15.17;8.33;;;;;;;;;;4963635;28;21395;-82
2022/09/12 06:02:52;;;;;;;15.07;8.40;;;19.90;99.90;;;;;;4985797;28;20218;-81
2022/09/12 06:05:17;;;;;;;11.90;6.97;;;;;;;;;;4996393;28;20458;-84
2022/09/12 06:07:46;;;;;;;20.80;7.60;;;20.70;99.90;;;;;;4991069;28;20490;-82
2022/09/12 06:10:12;;;;;;;18.70;6.00;;;;;;;;;;4947650;28;20470;-85
2022/09/12 06:12:38;;;;;;;17.20;6.13;;;;;;;;;;4966211;28;20569;-83
2022/09/12 06:15:04;;;;;;;8.23;4.87;;;21.00;99.90;;;;;;4969492;28;20457;-83
2022/09/12 06:17:30;;;;;;;11.70;5.10;;;;;;;;;;4958195;28;21009;-84
2022/09/12 06:19:56;;;;;;;7.43;4.60;;;;;;;;;;4970441;28;20528;-86
2022/09/12 06:22:22;;;;;;;4.87;4.47;;;;;;;;;;4966496;28;20593;-83
2022/09/12 06:24:47;;;;;;;4.70;4.30;;;;;;;;;;4964882;28;20887;-85
2022/09/12 06:27:14;;;;;;;7.97;6.00;;;;;;;;;;4960817;28;20446;-85
2022/09/12 06:29:40;;;;;;;6.20;5.60;;;;;;;;;;4968145;28;21420;-86
2022/09/12 06:32:06;;;;;;;5.50;5.00;;;;;;;;;;4951663;28;20457;-82
2022/09/12 06:34:32;;;;;;;5.77;5.27;;;;;;;;;;4951570;28;20441;-84
2022/09/12 06:36:58;;;;;;;5.37;4.87;;;;;;;;;;4954205;28;20472;-86
2022/09/12 06:39:24;;;;;;;7.23;6.63;;;;;;;;;;4958357;28;20442;-86
2022/09/12 06:41:51;;;;;;;8.77;7.33;;;28.00;85.90;;;;;;4960460;28;20575;-83
2022/09/12 06:44:21;;;;;;;9.40;8.50;;;27.10;88.40;;;;;;4963537;28;20456;-82
2022/09/12 06:46:47;;;;;;;13.13;9.13;;;;;;;;;;4948172;28;20447;-82
2022/09/12 06:49:13;;;;;;;52.00;10.87;;;;;;;;;;4961850;28;21319;-87
2022/09/12 06:51:40;;;;;;;14.23;9.60;;;27.60;90.60;;;;;;4959221;28;20460;-86
2022/09/12 06:54:06;;;;;;;21.60;9.60;;;;;;;;;;4960456;28;20484;-86
2022/09/12 06:56:33;;;;;;;30.17;9.73;;;;;;;;;;4964368;28;20470;-85
2022/09/12 06:58:59;;;;;;;11.17;9.97;;;;;;;;;;4966013;28;20478;-86
2022/09/12 07:01:29;;;;;;;13.60;10.83;;;28.50;89.80;;;;;;4970482;28;20457;-87
2022/09/12 07:04:03;;;;;;;11.17;9.97;;;28.90;88.10;;;;;;4961259;28;20450;-85
2022/09/12 07:06:33;;;;;;;11.97;9.30;;;29.90;86.00;;;;;;4966826;28;20445;-84
2022/09/12 07:09:01;;;;;;;11.63;9.53;;;30.40;88.50;;;;;;4980816;28;20975;-88
2022/09/12 07:11:32;;;;;;;11.70;10.10;;;30.10;81.40;;;;;;4951763;28;20470;-87
2022/09/12 07:14:00;;;;;;;9.77;8.80;;;29.30;84.40;;;;;;4968886;28;20491;-86
2022/09/12 07:16:26;;;;;;;11.70;9.70;;;;;;;;;;4970241;28;20443;-86
2022/09/12 07:18:54;;;;;;;14.40;9.20;;;31.30;79.10;;;;;;4966819;28;20449;-88
2022/09/12 07:21:21;;;;;;;10.97;9.87;;;31.00;78.20;;;;;;4960384;28;20492;-85
2022/09/12 07:23:48;;;;;;;10.37;9.30;;;;;;;;;;4957358;28;22377;-85
2022/09/12 07:26:15;;;;;;;10.50;9.40;;;28.50;82.90;;;;;;4960689;28;20440;-87
2022/09/12 07:28:41;;;;;;;10.50;9.10;;;;;;;;;;4955097;28;20443;-86
2022/09/12 07:31:15;;;;;;;20.27;9.80;;;28.70;90.20;;;;;;4970324;28;20473;-85
2022/09/12 07:33:42;;;;;;;9.67;8.77;;;28.90;88.70;;;;;;4963419;28;20484;-84
2022/09/12 07:36:11;;;;;;;10.43;9.10;;;30.20;86.80;;;;;;4962692;28;20955;-80
2022/09/12 07:38:38;;;;;;;9.97;8.97;;;31.20;83.10;;;;;;4977603;28;20451;-85
2022/09/12 07:41:11;;;;;;;10.53;9.40;;;29.90;82.60;;;;;;4969027;28;20462;-81
2022/09/12 07:43:37;;;;;;;9.20;8.20;;;;;;;;;;4964101;28;20480;-85
2022/09/12 07:46:03;;;;;;;11.37;9.47;;;;;;;;;;4964563;28;20816;-86
2022/09/12 07:48:29;;;;;;;8.93;8.03;;;;;;;;;;4965115;28;20582;-87
2022/09/12 07:51:00;;;;;;;10.90;9.73;;;29.50;86.00;;;;;;4962493;28;21265;-87
2022/09/12 07:53:29;;;;;;;10.47;8.73;;;30.50;83.40;;;;;;4966694;28;20473;-83
2022/09/12 07:55:55;;;;;;;11.00;9.90;;;;;;;;;;4964932;28;20458;-83
2022/09/12 07:58:22;;;;;;;8.93;8.03;;;30.90;82.10;;;;;;4955738;28;20529;-84
2022/09/12 08:00:48;;;;;;;12.93;9.07;;;;;;;;;;4968841;28;20462;-83
2022/09/12 08:03:14;;;;;;;9.10;8.20;;;;;;;;;;4967952;28;20499;-84
2022/09/12 08:05:40;;;;;;;9.20;7.93;;;;;;;;;;4967787;28;20526;-81
2022/09/12 08:08:06;;;;;;;10.13;9.10;;;;;;;;;;4962572;28;20531;-85
2022/09/12 08:10:32;;;;;;;8.63;7.73;;;;;;;;;;4967497;28;21121;-85
2022/09/12 08:12:58;;;;;;;9.10;8.30;;;;;;;;;;4964061;28;20462;-85
2022/09/12 08:15:24;;;;;;;7.50;6.80;;;;;;;;;;4964606;28;20448;-86
2022/09/12 08:17:50;;;;;;;8.30;7.10;;;;;;;;;;4963495;28;20438;-88
2022/09/12 08:20:16;;;;;;;6.77;5.50;;;;;;;;;;4967823;28;20458;-87
2022/09/12 08:22:43;;;;;;;10.13;5.23;;;;;;;;;;4965283;28;20445;-86
2022/09/12 08:25:09;;;;;;;7.23;6.03;;;;;;;;;;4964443;28;21823;-84
2022/09/12 08:27:35;;;;;;;7.20;5.70;;;;;;;;;;4958220;28;20503;-86
2022/09/12 08:30:01;;;;;;;5.20;4.73;;;;;;;;;;4963144;28;20997;-82
2022/09/12 08:32:27;;;;;;;6.70;5.17;;;;;;;;;;4967430;28;20517;-89
2022/09/12 08:34:53;;;;;;;5.43;5.03;;;;;;;;;;4968734;28;20440;-84
2022/09/12 08:37:19;;;;;;;6.70;5.40;;;;;;;;;;4965103;28;20478;-87
2022/09/12 08:39:45;;;;;;;5.20;4.77;;;;;;;;;;4962058;28;20441;-87
2022/09/12 08:42:24;;;;;;;11.00;5.00;;;30.90;64.30;;;;;;4969665;28;20549;-85
2022/09/12 08:44:59;;;;;;;6.00;5.10;;;31.10;65.60;;;;;;4972883;28;20441;-85
2022/09/12 08:47:36;;;;;;;4.87;4.47;;;31.10;65.30;;;;;;4962770;28;20451;-83
2022/09/12 08:50:08;;;;;;;4.50;4.10;;;30.40;65.70;;;;;;4949295;28;20467;-84
2022/09/12 08:52:52;;;;;;;4.80;4.30;;;30.30;66.50;;;;;;4962401;28;20982;-82
2022/09/12 08:55:43;;;;;;;4.10;3.70;;;29.90;68.50;;;;;;4969023;28;20640;-84
2022/09/12 08:58:23;;;;;;;5.67;4.47;;;30.70;69.40;;;;;;4951773;28;20434;-83
2022/09/12 09:00:58;;;;;;;4.70;4.30;;;31.30;68.30;;;;;;4974980;28;20537;-85
2022/09/12 09:03:52;;;;;;;4.90;4.50;;;31.60;65.60;;;;;;4974441;28;20896;-84
2022/09/12 09:06:44;;;;;;;5.27;4.50;;;31.00;68.40;;;;;;4949336;28;21485;-80
2022/09/12 09:09:38;;;;;;;7.43;4.57;;;30.80;68.20;;;;;;4995689;28;20442;-85
2022/09/12 09:12:24;;;;;;;6.23;4.60;;;30.80;67.90;;;;;;4969747;28;21863;-85
2022/09/12 09:15:11;;;;;;;7.37;4.60;;;30.80;68.80;;;;;;4971502;28;20437;-85
2022/09/12 09:17:43;;;;;;;7.10;4.50;;;30.20;66.90;;;;;;4973589;28;20435;-83
2022/09/12 09:20:44;;;;;;;4.93;4.53;;;30.00;67.20;;;;;;4961515;28;21363;-83
2022/09/12 09:23:32;;;;;;;5.90;4.70;;;29.90;68.00;;;;;;4965000;28;20481;-86
2022/09/12 09:26:26;;;;;;;5.60;4.90;;;29.90;68.40;;;;;;4982182;28;20563;-85
2022/09/12 09:29:09;;;;;;;5.57;5.03;;;30.00;67.60;;;;;;4969746;28;20455;-83
2022/09/12 09:31:38;;;;;;;4.87;4.43;;;29.70;67.90;;;;;;4965794;28;20457;-86
2022/09/12 09:34:14;;;;;;;4.93;4.43;;;29.60;67.30;;;;;;4966919;28;20471;-83
2022/09/12 09:36:58;;;;;;;5.90;4.57;;;29.50;69.20;;;;;;4968600;28;20427;-83
2022/09/12 09:39:48;;;;;;;5.03;4.40;;;29.80;67.90;;;;;;4975466;28;20503;-86
2022/09/12 09:42:19;;;;;;;5.57;4.00;;;29.60;65.00;;;;;;4972714;28;20448;-87
2022/09/12 09:44:47;;;;;;;5.40;4.13;;;29.20;67.50;;;;;;4974536;28;20441;-85
2022/09/12 09:47:13;;;;;;;4.50;4.10;;;;;;;;;;4950052;28;20440;-84
2022/09/12 09:49:40;;;;;;;5.27;4.40;;;28.70;68.80;;;;;;4971190;28;20480;-87
2022/09/12 09:52:07;;;;;;;4.60;4.20;;;28.80;69.30;;;;;;4958745;28;20431;-87
2022/09/12 09:54:45;;;;;;;4.73;3.03;;;28.70;66.30;;;;;;4965785;28;20480;-84
2022/09/12 09:57:32;;;;;;;4.33;3.20;;;28.70;66.80;;;;;;4949374;28;20884;-87
2022/09/12 09:59:58;;;;;;;4.53;3.73;;;;;;;;;;4973367;28;20476;-83
2022/09/12 10:02:27;;;;;;;3.53;3.23;;;;;;;;;;4975239;28;20452;-85
2022/09/12 10:04:57;;;;;;;4.73;3.50;;;28.80;65.70;;;;;;4973336;28;21230;-88
2022/09/12 10:07:24;;;;;;;4.47;4.07;;;27.70;68.50;;;;;;4962046;28;20558;-88
2022/09/12 10:10:13;;;;;;;3.37;3.10;;;26.80;71.90;;;;;;4948754;28;20462;-86
2022/09/12 10:12:38;;;;;;;6.90;4.30;;;26.60;72.60;;;;;;4967349;28;20474;-86
2022/09/12 10:15:20;;;;;;;4.03;3.63;;;25.30;76.00;;;;;;4976133;28;21027;-84
2022/09/12 10:17:48;;;;;;;5.47;3.27;;;25.30;77.10;;;;;;4955083;28;20188;-87
2022/09/12 10:20:31;;;;;;;3.73;3.43;;;24.60;82.10;;;;;;4967363;28;20508;-88
2022/09/12 10:23:02;;;;;;;4.47;3.63;;;24.00;82.00;;;;;;4971789;28;20515;-83
2022/09/12 10:25:28;;;;;;;4.50;4.10;;;23.90;82.60;;;;;;4969908;28;20467;-81
2022/09/12 10:27:59;;;;;;;4.90;3.23;;;23.70;85.30;;;;;;4983144;28;20478;-84
2022/09/12 10:30:27;;;;;;;4.10;3.63;;;24.10;85.90;;;;;;4974397;28;20245;-85
2022/09/12 10:32:56;;;;;;;4.67;4.20;;;24.50;84.70;;;;;;4961508;28;20466;-82
2022/09/12 10:35:41;;;;;;;3.80;2.90;;;24.50;85.20;;;;;;4956620;28;20809;-87
2022/09/12 10:38:15;;;;;;;4.60;4.13;;;25.00;82.30;;;;;;4990609;28;20444;-84
2022/09/12 10:40:42;;;;;;;3.47;3.20;;;25.00;81.70;;;;;;4969335;28;20486;-82
2022/09/12 10:43:26;;;;;;;4.57;3.57;;;25.00;82.40;;;;;;4966057;28;20448;-85
2022/09/12 10:45:57;;;;;;;4.10;3.73;;;24.90;81.00;;;;;;4979361;28;20478;-82
2022/09/12 10:48:30;;;;;;;3.30;3.10;;;24.90;81.90;;;;;;4972392;28;20451;-85
2022/09/12 10:51:00;;;;;;;3.87;3.47;;;27.10;83.40;;;;;;4961702;28;20467;-84
2022/09/12 10:53:41;;;;;;;3.63;2.80;;;24.70;80.20;;;;;;4966823;28;20472;-83
2022/09/12 10:56:19;;;;;;;4.70;3.53;;;24.80;82.40;;;;;;4953341;28;20447;-85
2022/09/12 10:59:07;;;;;;;5.20;3.23;;;25.10;80.60;;;;;;4964014;28;20506;-84
2022/09/12 11:01:47;;;;;;;4.43;3.17;;;25.20;77.40;;;;;;4946712;28;20466;-86
2022/09/12 11:04:27;;;;;;;2.80;2.60;;;25.30;79.10;;;;;;4972073;28;20442;-86
2022/09/12 11:07:15;;;;;;;4.17;2.90;;;25.40;77.50;;;;;;4953299;28;20531;-85
2022/09/12 11:09:41;;;;;;;3.67;2.70;;;;;;;;;;4967034;28;20439;-85
2022/09/12 11:12:12;;;;;;;3.03;2.73;;;25.50;73.30;;;;;;4978093;28;20434;-85
2022/09/12 11:14:38;;;;;;;2.83;2.63;;;;;;;;;;4969115;28;20449;-85
2022/09/12 11:17:04;;;;;;;2.90;2.70;;;;;;;;;;4973017;28;20444;-87
2022/09/12 11:19:45;;;;;;;3.63;2.40;;;25.70;73.00;;;;;;4970390;28;20474;-84
2022/09/12 11:22:59;;;;;;;3.70;2.60;;;25.70;73.20;;;;;;4957422;28;20509;-83
2022/09/12 11:25:25;;;;;;;3.20;2.90;;;;;;;;;;4961475;28;20443;-83
2022/09/12 11:28:11;;;;;;;3.17;2.93;;;25.60;72.80;;;;;;4959878;28;20442;-83
2022/09/12 11:31:06;;;;;;;3.30;3.00;;;25.80;71.20;;;;;;4966711;28;20468;-85
2022/09/12 11:33:50;;;;;;;3.97;2.97;;;26.00;70.20;;;;;;4952276;28;20482;-86
2022/09/12 11:36:36;;;;;;;2.80;2.60;;;26.00;70.90;;;;;;4956388;28;21522;-82
2022/09/12 11:39:12;;;;;;;4.33;2.90;;;25.90;70.70;;;;;;4965048;28;20447;-84
2022/09/12 11:41:41;;;;;;;5.47;2.27;;;25.50;69.20;;;;;;4968874;28;20462;-86
2022/09/12 11:44:40;;;;;;;4.60;3.00;;;25.50;69.90;;;;;;4969847;28;20562;-83
2022/09/12 11:47:10;;;;;;;2.60;2.40;;;25.70;69.70;;;;;;4950499;28;20439;-82
2022/09/12 11:49:46;;;;;;;2.80;2.60;;;25.60;69.70;;;;;;4958775;28;20451;-85
2022/09/12 11:52:18;;;;;;;3.03;2.70;;;25.60;70.20;;;;;;4954306;28;21234;-82
2022/09/12 11:54:56;;;;;;;3.37;2.63;;;25.70;68.90;;;;;;4962373;28;20444;-87
2022/09/12 11:57:28;;;;;;;3.70;2.67;;;25.70;69.70;;;;;;4950191;28;22476;-82
2022/09/12 12:00:13;;;;;;;2.37;2.00;;;25.80;68.20;;;;;;4970694;28;20446;-86
2022/09/12 12:02:48;;;;;;;4.20;2.50;;;26.20;68.10;;;;;;4966765;28;21118;-87
2022/09/12 12:07:57;;;;;;;2.77;2.37;;;25.50;67.50;;;;;;4969879;28;20575;-86
2022/09/12 12:10:32;;;;;;;4.10;2.77;;;25.50;67.30;;;;;;4969504;28;20532;-84
2022/09/12 12:13:00;;;;;;;3.10;2.80;;;25.50;67.80;;;;;;4975605;28;20521;-86
2022/09/12 12:15:27;;;;;;;3.13;2.57;;;25.50;67.50;;;;;;4971137;28;21357;-86
2022/09/12 12:18:14;;;;;;;3.30;2.50;;;25.50;68.90;;;;;;4969728;28;20451;-86
2022/09/12 12:20:40;;;;;;;4.10;2.80;;;25.80;70.30;;;;;;4969153;28;20513;-86
2022/09/12 12:23:06;;;;;;;2.53;2.33;;;;;;;;;;4969459;28;20562;-86
2022/09/12 12:25:59;;;;;;;3.13;2.50;;;25.70;67.70;;;;;;4974113;28;20852;-86
2022/09/12 12:28:40;;;;;;;2.87;2.07;;;25.80;68.00;;;;;;4973177;28;20452;-86
2022/09/12 12:31:06;;;;;;;2.20;2.00;;;25.90;65.10;;;;;;4957236;28;20449;-86
2022/09/12 12:33:32;;;;;;;2.90;2.10;;;;;;;;;;4966414;28;20485;-87
2022/09/12 12:35:58;;;;;;;4.43;2.10;;;;;;;;;;4966904;28;20569;-86
2022/09/12 12:38:34;;;;;;;3.13;2.73;;;25.90;61.40;;;;;;4970186;28;20445;-86
2022/09/12 12:41:18;;;;;;;2.80;2.20;;;25.70;61.50;;;;;;4976767;28;20478;-86
2022/09/12 12:43:44;;;;;;;2.73;2.10;;;;;;;;;;4953267;28;20431;-86
2022/09/12 12:46:12;;;;;;;1.83;1.73;;;25.90;61.30;;;;;;4973635;28;20911;-85
2022/09/12 12:48:52;;;;;;;1.90;1.80;;;26.00;59.20;;;;;;4970615;28;20498;-83
2022/09/12 12:51:54;;;;;;;1.87;1.70;;;26.00;60.00;;;;;;4991784;28;20455;-83
2022/09/12 12:54:40;;;;;;;2.07;1.87;;;25.90;58.70;;;;;;4969939;28;20480;-88
2022/09/12 12:57:11;;;;;;;4.17;1.90;;;26.10;58.40;;;;;;4976070;28;20509;-84
2022/09/12 12:59:49;;;;;;;3.50;1.40;;;25.90;56.30;;;;;;4969246;28;21008;-86
2022/09/12 13:02:40;;;;;;;1.57;1.47;;;25.90;58.20;;;;;;4970201;28;20438;-86
2022/09/12 13:05:17;;;;;;;1.80;1.70;;;26.00;56.30;;;;;;4959983;28;21025;-86
2022/09/12 13:07:44;;;;;;;2.00;1.87;;;;;;;;;;4966332;28;20896;-86
2022/09/12 13:10:22;;;;;;;2.47;2.27;;;26.30;59.10;;;;;;4969565;28;20448;-85
2022/09/12 13:12:48;;;;;;;2.07;1.97;;;;;;;;;;4972624;28;20464;-85
2022/09/12 13:15:35;;;;;;;2.37;2.17;;;26.50;59.40;;;;;;4973879;28;20457;-87
2022/09/12 13:18:15;;;;;;;2.13;1.93;;;26.70;58.50;;;;;;4972732;28;21015;-85
2022/09/12 13:20:50;;;;;;;3.07;2.20;;;26.60;59.20;;;;;;4960973;28;20453;-86
2022/09/12 13:23:29;;;;;;;2.23;2.03;;;26.20;58.40;;;;;;4969641;28;20461;-85
2022/09/12 13:25:56;;;;;;;2.93;1.80;;;25.90;56.30;;;;;;4975253;28;20476;-87
2022/09/12 13:28:23;;;;;;;2.60;2.03;;;26.10;57.20;;;;;;4969500;28;20454;-85
2022/09/12 13:31:00;;;;;;;2.80;2.30;;;26.60;57.30;;;;;;4975635;28;20438;-87
2022/09/12 13:33:26;;;;;;;2.40;2.23;;;;;;;;;;4952983;28;20583;-85
2022/09/12 13:36:05;;;;;;;2.10;1.90;;;27.00;55.60;;;;;;4967402;28;21273;-86
2022/09/12 13:39:01;;;;;;;1.90;1.80;;;26.80;56.00;;;;;;4968374;28;21018;-85